createdAt,value
2022-08-18T00:01:14.805Z,37.40
2022-08-18T00:03:57.048Z,34.30
2022-08-18T00:06:31.096Z,29.95
2022-08-18T00:09:00.303Z,34.95
2022-08-18T00:11:41.274Z,33.15
2022-08-18T00:14:21.660Z,32.00
2022-08-18T00:16:53.326Z,32.35
2022-08-18T00:19:27.835Z,31.50
2022-08-18T00:22:14.631Z,32.08
2022-08-18T00:24:47.578Z,31.83
2022-08-18T00:27:23.290Z,28.02
2022-08-18T00:29:54.005Z,29.27
2022-08-18T00:32:28.629Z,31.58
2022-08-18T00:34:56.617Z,28.55
2022-08-18T00:37:24.824Z,27.23
2022-08-18T00:39:53.880Z,24.98
2022-08-18T00:42:28.878Z,26.17
2022-08-18T00:45:04.825Z,26.65
2022-08-18T00:47:43.026Z,27.58
2022-08-18T00:50:18.688Z,25.90
2022-08-18T00:52:51.949Z,24.77
2022-08-18T00:55:22.185Z,26.00
2022-08-18T00:57:52.406Z,25.90
2022-08-18T01:00:19.904Z,27.55
2022-08-18T01:02:53.543Z,22.45
2022-08-18T01:05:34.147Z,25.15
2022-08-18T01:08:01.483Z,25.75
2022-08-18T01:10:28.977Z,26.50
2022-08-18T01:12:57.960Z,25.13
2022-08-18T01:15:30.469Z,24.67
2022-08-18T01:18:20.623Z,27.52
2022-08-18T01:21:24.277Z,24.23
2022-08-18T01:23:53.786Z,24.63
2022-08-18T01:26:22.844Z,26.80
2022-08-18T01:28:50.753Z,28.60
2022-08-18T01:31:42.022Z,28.10
2022-08-18T01:34:24.845Z,27.38
2022-08-18T01:36:54.250Z,34.42
2022-08-18T01:41:23.248Z,33.17
2022-08-18T01:42:11.565Z,32.20
2022-08-18T01:44:41.798Z,34.67
2022-08-18T01:47:11.678Z,38.58
2022-08-18T01:49:43.298Z,38.67
2022-08-18T01:54:39.266Z,44.97
2022-08-18T01:57:13.546Z,57.08
2022-08-18T01:59:42.684Z,46.75
2022-08-18T02:02:18.160Z,46.45
2022-08-18T02:04:47.612Z,47.05
2022-08-18T02:07:15.302Z,50.10
2022-08-18T02:09:43.825Z,51.05
2022-08-18T02:12:11.514Z,49.13
2022-08-18T02:14:39.198Z,92.18
2022-08-18T02:17:09.467Z,68.93
2022-08-18T02:19:47.418Z,52.78
2022-08-18T02:22:18.354Z,55.88
2022-08-18T02:24:46.223Z,50.20
2022-08-18T02:27:15.031Z,50.92
2022-08-18T02:29:42.966Z,53.13
2022-08-18T02:32:10.397Z,49.65
2022-08-18T02:34:37.796Z,48.45
2022-08-18T02:37:05.377Z,53.67
2022-08-18T02:39:35.880Z,49.13
2022-08-18T02:42:03.556Z,45.50
2022-08-18T02:44:32.096Z,45.55
2022-08-18T02:46:59.842Z,40.60
2022-08-18T02:49:27.114Z,42.33
2022-08-18T02:51:54.769Z,29.45
2022-08-18T02:54:23.668Z,32.25
2022-08-18T02:56:52.882Z,37.47
2022-08-18T02:59:24.433Z,41.85
2022-08-18T03:01:55.694Z,32.53
2022-08-18T03:04:29.495Z,35.05
2022-08-18T03:07:00.593Z,54.03
2022-08-18T03:09:29.584Z,35.03
2022-08-18T03:11:57.168Z,33.10
2022-08-18T03:14:25.555Z,39.97
2022-08-18T03:16:55.243Z,34.22
2022-08-18T03:19:25.337Z,40.13
2022-08-18T03:21:53.061Z,32.53
2022-08-18T03:24:22.811Z,33.92
2022-08-18T03:26:52.951Z,34.43
2022-08-18T03:29:21.718Z,34.90
2022-08-18T03:31:49.949Z,39.47
2022-08-18T03:34:19.998Z,44.35
2022-08-18T03:36:49.333Z,44.03
2022-08-18T03:39:17.606Z,49.28
2022-08-18T03:41:58.556Z,40.97
2022-08-18T03:44:31.396Z,93.18
2022-08-18T03:46:59.457Z,62.60
2022-08-18T03:49:27.441Z,65.07
2022-08-18T03:51:55.355Z,93.93
2022-08-18T03:54:22.893Z,93.90
2022-08-18T03:56:50.154Z,93.55
2022-08-18T03:59:22.686Z,94.68
2022-08-18T04:01:52.185Z,86.80
2022-08-18T04:04:22.780Z,95.60
2022-08-18T04:07:04.786Z,83.68
2022-08-18T04:09:34.526Z,91.32
2022-08-18T04:12:16.579Z,92.63
2022-08-18T04:14:48.645Z,103.57
2022-08-18T04:17:23.659Z,117.43
2022-08-18T04:19:55.636Z,99.40
2022-08-18T04:22:24.976Z,97.07
2022-08-18T04:24:53.129Z,108.07
2022-08-18T04:27:22.131Z,111.40
2022-08-18T04:29:49.962Z,90.30
2022-08-18T04:32:17.583Z,87.65
2022-08-18T04:34:45.289Z,87.43
2022-08-18T04:37:14.022Z,62.78
2022-08-18T04:39:42.663Z,52.90
2022-08-18T04:42:10.425Z,58.78
2022-08-18T04:44:38.061Z,53.42
2022-08-18T04:47:07.696Z,56.08
2022-08-18T04:49:35.480Z,54.38
2022-08-18T04:52:40.320Z,56.80
2022-08-18T04:55:09.905Z,54.85
2022-08-18T04:57:37.207Z,52.05
2022-08-18T05:00:07.087Z,56.50
2022-08-18T05:02:35.141Z,49.28
2022-08-18T05:05:04.304Z,46.65
2022-08-18T05:07:32.245Z,41.63
2022-08-18T05:09:59.913Z,52.97
2022-08-18T05:12:27.294Z,42.83
2022-08-18T05:14:57.430Z,39.78
2022-08-18T05:17:29.033Z,44.42
2022-08-18T05:20:00.825Z,44.08
2022-08-18T05:22:37.533Z,38.67
2022-08-18T05:25:05.449Z,39.05
2022-08-18T05:27:39.191Z,39.67
2022-08-18T05:30:07.969Z,42.05
2022-08-18T05:32:48.687Z,34.90
2022-08-18T05:35:36.624Z,32.83
2022-08-18T05:38:24.592Z,38.60
2022-08-18T05:41:06.642Z,42.63
2022-08-18T05:43:36.911Z,36.45
2022-08-18T05:46:19.196Z,34.53
2022-08-18T05:48:50.465Z,30.70
2022-08-18T05:51:29.478Z,32.83
2022-08-18T05:54:16.532Z,31.55
2022-08-18T05:56:47.144Z,35.85
2022-08-18T05:59:20.465Z,31.75
2022-08-18T06:01:53.630Z,33.00
2022-08-18T06:04:31.197Z,32.63
2022-08-18T06:07:02.635Z,30.20
2022-08-18T06:09:40.687Z,31.67
2022-08-18T06:12:19.314Z,29.85
2022-08-18T06:14:46.960Z,27.02
2022-08-18T06:17:42.329Z,27.40
2022-08-18T06:20:23.157Z,24.30
2022-08-18T06:23:05.858Z,20.52
2022-08-18T06:26:01.711Z,17.15
2022-08-18T06:28:43.678Z,19.48
2022-08-18T06:31:27.458Z,18.17
2022-08-18T06:34:13.016Z,23.27
2022-08-18T06:36:52.511Z,19.42
2022-08-18T06:39:32.135Z,16.55
2022-08-18T06:42:00.144Z,13.52
2022-08-18T06:44:49.051Z,16.92
2022-08-18T06:47:28.717Z,15.23
2022-08-18T06:50:31.024Z,14.43
2022-08-18T06:53:05.032Z,16.23
2022-08-18T06:55:43.838Z,16.52
2022-08-18T06:58:17.470Z,15.13
2022-08-18T07:01:07.917Z,12.45
2022-08-18T07:03:51.416Z,14.25
2022-08-18T07:06:21.543Z,16.60
2022-08-18T07:09:20.660Z,14.82
2022-08-18T07:12:29.058Z,14.88
2022-08-18T07:15:02.711Z,13.43
2022-08-18T07:17:43.668Z,15.43
2022-08-18T07:20:24.936Z,13.70
2022-08-18T07:23:00.216Z,11.98
2022-08-18T07:25:38.670Z,11.88
2022-08-18T07:28:31.642Z,18.10
2022-08-18T07:31:16.892Z,18.33
2022-08-18T07:33:51.526Z,14.75
2022-08-18T07:36:24.490Z,14.05
2022-08-18T07:38:57.161Z,15.52
2022-08-18T07:41:35.783Z,15.30
2022-08-18T07:44:27.842Z,16.55
2022-08-18T07:47:01.270Z,13.70
2022-08-18T07:49:35.570Z,15.02
2022-08-18T07:52:05.714Z,16.08
2022-08-18T07:54:54.810Z,13.25
2022-08-18T07:57:48.816Z,14.48
2022-08-18T08:00:57.666Z,15.00
2022-08-18T08:03:58.700Z,17.40
2022-08-18T08:06:47.705Z,19.73
2022-08-18T08:09:40.928Z,15.90
2022-08-18T08:12:29.347Z,14.25
2022-08-18T08:15:32.020Z,11.43
2022-08-18T08:18:12.875Z,11.90
2022-08-18T08:20:55.076Z,13.50
2022-08-18T08:23:45.519Z,18.88
2022-08-18T08:26:42.287Z,12.15
2022-08-18T08:29:36.449Z,12.82
2022-08-18T08:32:10.921Z,16.35
2022-08-18T08:35:48.889Z,13.65
2022-08-18T08:38:40.010Z,16.55
2022-08-18T08:43:45.596Z,12.75
2022-08-18T08:46:30.024Z,15.05
2022-08-18T08:49:17.096Z,12.52
2022-08-18T08:51:56.761Z,13.18
2022-08-18T08:54:30.837Z,13.52
2022-08-18T08:57:01.360Z,14.85
2022-08-18T08:59:28.894Z,23.23
2022-08-18T09:02:32.266Z,13.27
2022-08-18T09:05:40.173Z,14.50
2022-08-18T09:08:42.993Z,15.55
2022-08-18T09:11:13.387Z,13.60
2022-08-18T09:13:46.716Z,10.63
2022-08-18T09:16:43.789Z,17.85
2022-08-18T09:19:32.840Z,12.00
2022-08-18T09:22:01.693Z,11.55
2022-08-18T09:24:33.126Z,12.70
2022-08-18T09:27:03.209Z,14.18
2022-08-18T09:29:43.913Z,11.18
2022-08-18T09:32:24.230Z,15.02
2022-08-18T09:35:23.542Z,15.85
2022-08-18T09:38:33.595Z,17.10
2022-08-18T09:41:29.378Z,11.57
2022-08-18T09:44:21.436Z,13.13
2022-08-18T09:46:56.113Z,13.32
2022-08-18T09:49:31.054Z,12.00
2022-08-18T09:55:18.085Z,15.80
2022-08-18T09:57:47.993Z,13.75
2022-08-18T10:00:28.083Z,13.30
2022-08-18T10:02:56.388Z,11.73
2022-08-18T10:05:31.213Z,10.80
2022-08-18T10:08:14.863Z,19.02
2022-08-18T10:11:01.173Z,14.13
2022-08-18T10:14:08.098Z,13.35
2022-08-18T10:19:50.273Z,10.80
2022-08-18T10:22:37.519Z,12.02
2022-08-18T10:25:22.032Z,14.20
2022-08-18T10:27:57.238Z,10.52
2022-08-18T10:30:34.426Z,11.13
2022-08-18T10:33:17.937Z,11.75
2022-08-18T10:35:57.881Z,12.50
2022-08-18T10:38:31.036Z,13.95
2022-08-18T10:41:09.814Z,12.48
2022-08-18T10:43:57.768Z,19.92
2022-08-18T10:46:40.402Z,12.25
2022-08-18T10:49:13.462Z,17.20
2022-08-18T10:51:59.984Z,16.90
2022-08-18T10:54:54.027Z,15.95
2022-08-18T10:57:36.120Z,13.48
2022-08-18T11:03:51.263Z,12.18
2022-08-18T11:06:24.913Z,13.43
2022-08-18T11:09:01.566Z,11.63
2022-08-18T11:11:52.878Z,15.18
2022-08-18T11:14:51.123Z,14.65
2022-08-18T11:17:35.855Z,13.07
2022-08-18T11:20:11.055Z,17.25
2022-08-18T11:22:38.310Z,18.45
2022-08-18T11:25:20.668Z,19.38
2022-08-18T11:27:49.241Z,19.15
2022-08-18T11:30:18.872Z,18.23
2022-08-18T11:32:52.263Z,16.48
2022-08-18T11:35:30.206Z,22.67
2022-08-18T11:38:01.969Z,21.27
2022-08-18T11:41:10.397Z,18.00
2022-08-18T11:43:41.596Z,19.90
2022-08-18T11:46:29.485Z,14.43
2022-08-18T11:49:01.046Z,19.45
2022-08-18T11:51:32.509Z,19.42
2022-08-18T11:54:19.062Z,24.58
2022-08-18T11:56:46.468Z,20.92
2022-08-18T11:59:53.140Z,15.30
2022-08-18T12:02:17.963Z,14.10
2022-08-18T12:04:51.476Z,19.92
2022-08-18T12:07:30.974Z,20.60
2022-08-18T12:10:28.809Z,27.15
2022-08-18T12:13:00.480Z,19.08
2022-08-18T12:15:44.989Z,16.10
2022-08-18T12:18:18.937Z,26.48
2022-08-18T12:20:58.821Z,17.02
2022-08-18T12:23:26.908Z,15.20
2022-08-18T12:25:54.170Z,19.45
2022-08-18T12:28:22.343Z,18.50
2022-08-18T12:30:56.362Z,17.05
2022-08-18T12:33:25.554Z,13.93
2022-08-18T12:36:04.185Z,17.15
2022-08-18T12:38:33.318Z,18.20
2022-08-18T12:41:05.490Z,14.43
2022-08-18T12:43:32.728Z,15.80
2022-08-18T12:46:02.524Z,15.98
2022-08-18T12:48:31.839Z,15.00
2022-08-18T12:50:59.975Z,17.45
2022-08-18T12:53:30.587Z,19.27
2022-08-18T12:56:21.716Z,20.35
2022-08-18T12:58:49.907Z,15.35
2022-08-18T13:01:23.326Z,14.65
2022-08-18T13:04:13.240Z,16.70
2022-08-18T13:06:59.889Z,16.67
2022-08-18T13:09:34.939Z,25.17
2022-08-18T13:12:17.340Z,20.50
2022-08-18T13:14:46.015Z,17.10
2022-08-18T13:17:29.995Z,17.40
2022-08-18T13:20:09.202Z,20.40
2022-08-18T13:22:42.893Z,14.07
2022-08-18T13:25:32.164Z,17.92
2022-08-18T13:28:02.025Z,20.15
2022-08-18T13:30:32.428Z,17.88
2022-08-18T13:33:02.486Z,18.27
2022-08-18T13:35:38.536Z,15.80
2022-08-18T13:38:17.409Z,23.73
2022-08-18T13:40:49.104Z,22.38
2022-08-18T13:43:21.088Z,24.33
2022-08-18T13:45:53.404Z,17.13
2022-08-18T13:48:25.668Z,19.67
2022-08-18T13:50:55.728Z,13.02
2022-08-18T13:53:27.180Z,16.30
2022-08-18T13:55:58.536Z,14.98
2022-08-18T13:58:27.708Z,17.30
2022-08-18T14:01:22.654Z,18.85
2022-08-18T14:03:49.969Z,22.70
2022-08-18T14:06:22.516Z,16.95
2022-08-18T14:08:53.104Z,12.00
2022-08-18T14:11:32.792Z,20.67
2022-08-18T14:14:02.078Z,14.65
2022-08-18T14:16:30.791Z,14.65
2022-08-18T14:19:17.648Z,14.05
2022-08-18T14:22:11.117Z,11.02
2022-08-18T14:24:59.408Z,13.18
2022-08-18T14:27:35.178Z,12.60
2022-08-18T14:30:08.724Z,14.80
2022-08-18T14:32:37.008Z,14.07
2022-08-18T14:35:32.060Z,18.02
2022-08-18T14:38:09.813Z,13.82
2022-08-18T14:40:43.166Z,23.63
2022-08-18T14:43:16.169Z,12.40
2022-08-18T14:45:48.837Z,13.00
2022-08-18T14:48:20.360Z,14.95
2022-08-18T14:53:20.295Z,13.82
2022-08-18T14:55:52.169Z,17.85
2022-08-18T14:58:20.811Z,14.27
2022-08-18T15:00:53.352Z,9.80
2022-08-18T15:03:28.210Z,13.88
2022-08-18T15:06:00.557Z,12.82
2022-08-18T15:08:28.820Z,16.65
2022-08-18T15:10:57.421Z,13.48
2022-08-18T15:13:26.339Z,12.35
2022-08-18T15:16:02.175Z,17.92
2022-08-18T15:18:30.009Z,12.73
2022-08-18T15:21:19.704Z,13.40
2022-08-18T15:24:22.653Z,12.15
2022-08-18T15:26:57.486Z,11.60
2022-08-18T15:29:29.009Z,10.70
2022-08-18T15:32:05.831Z,10.75
2022-08-18T15:34:47.023Z,13.38
2022-08-18T15:37:20.388Z,12.13
2022-08-18T15:40:30.462Z,11.23
2022-08-18T15:43:01.599Z,13.77
2022-08-18T15:45:43.182Z,14.07
2022-08-18T15:48:24.993Z,12.43
2022-08-18T15:50:53.228Z,11.73
2022-08-18T15:53:23.124Z,10.68
2022-08-18T15:55:50.636Z,11.70
2022-08-18T15:58:22.485Z,10.95
2022-08-18T16:00:54.592Z,11.93
2022-08-18T16:03:21.904Z,11.55
2022-08-18T16:05:52.779Z,16.35
2022-08-18T16:08:23.653Z,11.27
2022-08-18T16:10:52.018Z,16.05
2022-08-18T16:13:20.086Z,13.45
2022-08-18T16:15:48.548Z,11.15
2022-08-18T16:18:17.871Z,12.38
2022-08-18T16:20:45.313Z,12.95
2022-08-18T16:23:13.319Z,15.15
2022-08-18T16:25:42.211Z,10.77
2022-08-18T16:28:10.604Z,8.10
2022-08-18T16:30:37.996Z,10.80
2022-08-18T16:33:06.956Z,13.90
2022-08-18T16:35:35.203Z,12.80
2022-08-18T16:38:09.632Z,13.68
2022-08-18T16:40:37.686Z,8.73
2022-08-18T16:43:06.823Z,9.07
2022-08-18T16:45:36.763Z,9.45
2022-08-18T16:48:04.410Z,9.05
2022-08-18T16:50:31.922Z,8.50
2022-08-18T16:52:59.133Z,10.07
2022-08-18T16:55:26.819Z,8.43
2022-08-18T16:58:15.620Z,10.52
2022-08-18T17:01:01.974Z,9.23
2022-08-18T17:03:48.168Z,8.88
2022-08-18T17:06:17.709Z,8.30
2022-08-18T17:08:45.602Z,10.30
2022-08-18T17:11:16.524Z,11.52
2022-08-18T17:13:44.789Z,13.15
2022-08-18T17:16:13.490Z,9.25
2022-08-18T17:18:41.486Z,10.38
2022-08-18T17:21:11.805Z,9.65
2022-08-18T17:23:39.882Z,9.88
2022-08-18T17:26:12.857Z,8.88
2022-08-18T17:28:50.513Z,10.88
2022-08-18T17:31:24.719Z,7.32
2022-08-18T17:33:57.392Z,8.50
2022-08-18T17:36:41.125Z,8.05
2022-08-18T17:39:13.237Z,9.88
2022-08-18T17:42:02.353Z,10.95
2022-08-18T17:44:31.659Z,10.60
2022-08-18T17:47:02.466Z,10.05
2022-08-18T17:50:26.979Z,7.22
2022-08-18T17:53:05.507Z,11.63
2022-08-18T17:55:41.409Z,8.52
2022-08-18T17:58:20.498Z,9.13
2022-08-18T18:00:48.077Z,11.40
2022-08-18T18:03:15.633Z,9.50
2022-08-18T18:05:49.779Z,8.73
2022-08-18T18:08:17.717Z,10.65
2022-08-18T18:11:04.383Z,9.90
2022-08-18T18:13:33.709Z,9.98
2022-08-18T18:16:35.449Z,9.18
2022-08-18T18:19:06.447Z,11.13
2022-08-18T18:21:55.414Z,13.27
2022-08-18T18:24:31.770Z,13.80
2022-08-18T18:26:59.143Z,10.25
2022-08-18T18:29:33.271Z,11.13
2022-08-18T18:32:25.315Z,12.45
2022-08-18T18:35:07.321Z,9.93
2022-08-18T18:38:00.595Z,13.15
2022-08-18T18:40:30.744Z,12.57
2022-08-18T18:43:17.855Z,9.77
2022-08-18T18:46:07.377Z,8.85
2022-08-18T18:48:59.516Z,11.82
2022-08-18T18:51:40.916Z,12.50
2022-08-18T18:54:26.289Z,9.05
2022-08-18T18:56:56.782Z,12.52
2022-08-18T18:59:42.633Z,17.67
2022-08-18T19:02:33.978Z,12.88
2022-08-18T19:05:08.500Z,11.43
2022-08-18T19:07:57.382Z,13.43
2022-08-18T19:10:33.851Z,10.10
2022-08-18T19:13:02.914Z,12.20
2022-08-18T19:15:34.324Z,15.60
2022-08-18T19:18:34.919Z,14.55
2022-08-18T19:22:03.535Z,11.43
2022-08-18T19:24:04.876Z,11.50
2022-08-18T19:26:39.387Z,16.08
2022-08-18T19:29:15.463Z,13.27
2022-08-18T19:31:48.715Z,11.45
2022-08-18T19:34:30.174Z,10.25
2022-08-18T19:37:27.571Z,11.80
2022-08-18T19:40:21.413Z,10.53
2022-08-18T19:43:01.413Z,12.73
2022-08-18T19:45:46.615Z,12.60
2022-08-18T19:48:39.275Z,11.43
2022-08-18T19:51:13.488Z,13.77
2022-08-18T19:53:47.325Z,13.93
2022-08-18T19:56:38.979Z,12.55
2022-08-18T19:59:35.459Z,11.43
2022-08-18T20:02:35.389Z,10.25
2022-08-18T20:05:30.168Z,13.70
2022-08-18T20:08:09.783Z,11.05
2022-08-18T20:10:42.859Z,11.18
2022-08-18T20:13:33.885Z,10.60
2022-08-18T20:16:10.731Z,11.88
2022-08-18T20:18:42.831Z,14.27
2022-08-18T20:21:16.070Z,10.60
2022-08-18T20:24:38.453Z,10.98
2022-08-18T20:27:35.921Z,10.05
2022-08-18T20:30:18.432Z,10.93
2022-08-18T20:33:07.457Z,13.38
2022-08-18T20:35:51.935Z,13.05
2022-08-18T20:38:29.192Z,11.50
2022-08-18T20:40:59.676Z,11.25
2022-08-18T20:43:31.982Z,11.43
2022-08-18T20:46:36.208Z,13.15
2022-08-18T20:49:35.550Z,10.50
2022-08-18T20:52:14.174Z,10.63
2022-08-18T20:54:58.566Z,14.27
2022-08-18T20:57:35.208Z,14.07
2022-08-18T21:00:14.273Z,19.00
2022-08-18T21:02:52.111Z,12.18
2022-08-18T21:05:31.657Z,12.70
2022-08-18T21:08:16.342Z,13.95
2022-08-18T21:11:08.266Z,10.18
2022-08-18T21:13:41.390Z,16.60
2022-08-18T21:16:10.912Z,12.50
2022-08-18T21:18:40.367Z,11.95
2022-08-18T21:21:26.853Z,11.95
2022-08-18T21:23:58.155Z,13.63
2022-08-18T21:26:27.265Z,14.50
2022-08-18T21:28:58.765Z,14.07
2022-08-18T21:31:44.161Z,12.55
2022-08-18T21:34:14.443Z,11.07
2022-08-18T21:36:54.538Z,12.70
2022-08-18T21:39:22.619Z,15.65
2022-08-18T21:41:54.534Z,13.63
2022-08-18T21:44:42.823Z,14.13
2022-08-18T21:47:26.576Z,15.60
2022-08-18T21:50:17.985Z,13.23
2022-08-18T21:53:02.391Z,15.48
2022-08-18T21:55:30.367Z,15.25
2022-08-18T21:58:16.922Z,12.13
2022-08-18T22:01:22.582Z,15.88
2022-08-18T22:03:59.319Z,14.23
2022-08-18T22:06:34.443Z,13.50
2022-08-18T22:09:30.101Z,15.52
2022-08-18T22:12:54.818Z,14.80
2022-08-18T22:15:39.427Z,18.70
2022-08-18T22:18:18.722Z,16.90
2022-08-18T22:20:57.461Z,15.43
2022-08-18T22:24:12.349Z,15.63
2022-08-18T22:26:40.408Z,11.48
2022-08-18T22:29:19.767Z,12.50
2022-08-18T22:31:50.127Z,11.77
2022-08-18T22:34:28.165Z,18.30
2022-08-18T22:37:00.863Z,12.50
2022-08-18T22:39:57.001Z,14.38
2022-08-18T22:42:27.577Z,11.30
2022-08-18T22:44:57.989Z,14.27
2022-08-18T22:47:29.353Z,16.38
2022-08-18T22:49:57.442Z,24.33
2022-08-18T22:52:29.895Z,17.65
2022-08-18T22:54:59.628Z,11.57
2022-08-18T22:57:33.848Z,10.07
2022-08-18T23:00:09.147Z,14.05
2022-08-18T23:02:37.577Z,14.05
2022-08-18T23:05:05.775Z,13.00
2022-08-18T23:07:34.237Z,9.75
2022-08-18T23:10:01.813Z,12.00
2022-08-18T23:12:29.224Z,12.18
2022-08-18T23:14:56.416Z,14.50
2022-08-18T23:17:23.615Z,14.40
2022-08-18T23:19:52.222Z,12.18
2022-08-18T23:22:19.722Z,13.80
2022-08-18T23:24:48.525Z,11.20
2022-08-18T23:27:16.946Z,13.18
2022-08-18T23:29:44.137Z,13.73
2022-08-18T23:32:11.346Z,14.35
2022-08-18T23:34:38.817Z,10.80
2022-08-18T23:37:09.718Z,14.93
2022-08-18T23:39:39.504Z,11.88
2022-08-18T23:42:13.195Z,13.98
2022-08-18T23:44:41.083Z,14.68
2022-08-18T23:47:08.338Z,14.18
2022-08-18T23:49:36.865Z,13.13
2022-08-18T23:52:05.801Z,13.43
2022-08-18T23:54:35.128Z,15.30
2022-08-18T23:57:02.793Z,15.13
2022-08-18T23:59:30.171Z,12.65
